createdAt,value
2023-03-05T00:01:56.054Z,55.10
2023-03-05T00:04:23.673Z,54.80
2023-03-05T00:06:50.870Z,54.80
2023-03-05T00:09:17.752Z,54.90
2023-03-05T00:11:44.597Z,55.90
2023-03-05T00:14:11.944Z,55.60
2023-03-05T00:16:38.982Z,55.80
2023-03-05T00:19:06.000Z,56.10
2023-03-05T00:21:35.160Z,56.10
2023-03-05T00:24:03.035Z,55.90
2023-03-05T00:26:30.138Z,56.00
2023-03-05T00:28:57.375Z,55.50
2023-03-05T00:31:31.963Z,55.30
2023-03-05T00:34:00.513Z,54.50
2023-03-05T00:36:27.475Z,55.60
2023-03-05T00:38:55.094Z,55.70
2023-03-05T00:41:22.646Z,55.40
2023-03-05T00:43:49.556Z,55.60
2023-03-05T00:46:16.646Z,54.70
2023-03-05T00:48:43.717Z,54.40
2023-03-05T00:51:10.666Z,54.00
2023-03-05T00:53:37.615Z,54.90
2023-03-05T00:56:05.060Z,54.90
2023-03-05T00:58:31.939Z,55.10
2023-03-05T01:01:00.149Z,54.00
2023-03-05T01:03:27.813Z,55.10
2023-03-05T01:05:55.808Z,54.90
2023-03-05T01:08:22.765Z,53.90
2023-03-05T01:10:49.740Z,55.20
2023-03-05T01:13:16.616Z,54.30
2023-03-05T01:15:43.576Z,55.40
2023-03-05T01:18:10.481Z,54.00
2023-03-05T01:20:37.310Z,54.50
2023-03-05T01:23:04.226Z,54.80
2023-03-05T01:25:31.197Z,54.50
2023-03-05T01:27:58.164Z,53.60
2023-03-05T01:30:25.106Z,54.50
2023-03-05T01:32:51.945Z,55.70
2023-03-05T01:35:21.068Z,54.80
2023-03-05T01:37:48.061Z,54.60
2023-03-05T01:40:16.710Z,54.50
2023-03-05T01:42:48.472Z,54.20
2023-03-05T01:45:17.600Z,54.70
2023-03-05T01:47:44.638Z,55.90
2023-03-05T01:50:17.511Z,53.50
2023-03-05T01:52:47.135Z,53.60
2023-03-05T01:55:16.258Z,53.30
2023-03-05T01:57:48.435Z,53.30
2023-03-05T02:00:17.940Z,51.90
2023-03-05T02:02:45.499Z,52.30
2023-03-05T02:05:18.135Z,51.60
2023-03-05T02:07:45.623Z,52.50
2023-03-05T02:10:21.131Z,51.80
2023-03-05T02:12:48.392Z,51.50
2023-03-05T02:15:15.412Z,52.00
2023-03-05T02:17:42.385Z,53.10
2023-03-05T02:20:12.074Z,52.20
2023-03-05T02:22:39.399Z,51.50
2023-03-05T02:25:13.457Z,50.20
2023-03-05T02:27:40.421Z,50.90
2023-03-05T02:30:07.865Z,51.60
2023-03-05T02:32:34.826Z,52.50
2023-03-05T02:35:02.246Z,51.50
2023-03-05T02:37:29.615Z,52.40
2023-03-05T02:39:56.532Z,50.90
2023-03-05T02:42:23.446Z,52.00
2023-03-05T02:44:50.877Z,52.40
2023-03-05T02:47:17.844Z,52.80
2023-03-05T02:49:44.715Z,53.00
2023-03-05T02:52:12.086Z,52.50
2023-03-05T02:54:38.960Z,53.40
2023-03-05T02:57:05.958Z,53.50
2023-03-05T02:59:32.951Z,52.90
2023-03-05T03:01:59.894Z,53.10
2023-03-05T03:04:26.882Z,51.80
2023-03-05T03:06:53.773Z,53.30
2023-03-05T03:09:20.683Z,52.50
2023-03-05T03:11:47.533Z,52.50
2023-03-05T03:14:14.421Z,52.40
2023-03-05T03:16:41.356Z,52.20
2023-03-05T03:19:08.273Z,52.60
2023-03-05T03:21:35.184Z,53.40
2023-03-05T03:24:02.049Z,53.10
2023-03-05T03:26:29.027Z,53.40
2023-03-05T03:28:55.908Z,52.80
2023-03-05T03:31:22.813Z,52.80
2023-03-05T03:33:50.164Z,54.00
2023-03-05T03:36:17.085Z,53.70
2023-03-05T03:38:44.006Z,53.90
2023-03-05T03:41:10.945Z,53.60
2023-03-05T03:43:37.928Z,54.70
2023-03-05T03:46:09.057Z,55.30
2023-03-05T03:48:36.185Z,53.10
2023-03-05T03:51:07.060Z,53.30
2023-03-05T03:53:34.116Z,53.40
2023-03-05T03:56:00.978Z,53.40
2023-03-05T03:58:27.839Z,52.90
2023-03-05T04:00:54.738Z,52.90
2023-03-05T04:03:21.566Z,52.20
2023-03-05T04:05:48.435Z,52.80
2023-03-05T04:08:15.295Z,50.40
2023-03-05T04:10:42.156Z,53.30
2023-03-05T04:13:09.044Z,53.70
2023-03-05T04:15:35.890Z,54.30
2023-03-05T04:18:02.825Z,53.90
2023-03-05T04:20:29.743Z,53.50
2023-03-05T04:22:56.608Z,54.70
2023-03-05T04:25:23.505Z,54.10
2023-03-05T04:27:51.054Z,54.00
2023-03-05T04:30:17.927Z,54.00
2023-03-05T04:32:44.778Z,54.70
2023-03-05T04:35:11.692Z,54.80
2023-03-05T04:37:38.570Z,54.50
2023-03-05T04:40:05.974Z,54.60
2023-03-05T04:42:32.920Z,54.80
2023-03-05T04:44:59.836Z,55.20
2023-03-05T04:47:26.708Z,56.10
2023-03-05T04:49:53.734Z,54.80
2023-03-05T04:52:20.710Z,54.00
2023-03-05T04:54:47.526Z,55.00
2023-03-05T04:57:14.399Z,55.00
2023-03-05T04:59:41.248Z,55.20
2023-03-05T05:02:08.174Z,55.10
2023-03-05T05:04:36.177Z,54.70
2023-03-05T05:07:03.180Z,57.00
2023-03-05T05:09:30.029Z,54.70
2023-03-05T05:11:56.862Z,55.50
2023-03-05T05:14:23.670Z,54.50
2023-03-05T05:16:50.541Z,55.30
2023-03-05T05:19:17.508Z,54.70
2023-03-05T05:21:44.444Z,56.00
2023-03-05T05:24:11.368Z,55.70
2023-03-05T05:26:38.231Z,55.90
2023-03-05T05:29:05.197Z,55.90
2023-03-05T05:31:32.192Z,56.00
2023-03-05T05:33:59.104Z,55.40
2023-03-05T05:36:25.978Z,55.40
2023-03-05T05:38:52.825Z,55.10
2023-03-05T05:41:19.964Z,54.90
2023-03-05T05:43:47.014Z,56.80
2023-03-05T05:46:18.494Z,54.90
2023-03-05T05:48:45.981Z,55.50
2023-03-05T05:51:15.164Z,55.00
2023-03-05T05:53:42.593Z,54.60
2023-03-05T05:56:09.918Z,55.40
2023-03-05T05:58:37.738Z,55.50
2023-03-05T06:01:13.318Z,55.80
2023-03-05T06:03:40.191Z,55.20
2023-03-05T06:06:13.881Z,55.80
2023-03-05T06:08:40.765Z,54.90
2023-03-05T06:11:07.751Z,55.80
2023-03-05T06:13:34.838Z,56.00
2023-03-05T06:16:07.229Z,55.80
2023-03-05T06:18:34.888Z,56.10
2023-03-05T06:21:06.832Z,55.70
2023-03-05T06:23:33.767Z,55.40
2023-03-05T06:26:01.976Z,55.40
2023-03-05T06:28:29.073Z,55.80
2023-03-05T06:31:13.329Z,55.40
2023-03-05T06:33:40.532Z,55.40
2023-03-05T06:36:14.831Z,56.00
2023-03-05T06:38:41.746Z,55.00
2023-03-05T06:41:13.570Z,56.00
2023-03-05T06:43:41.782Z,55.80
2023-03-05T06:46:12.272Z,55.30
2023-03-05T06:48:39.324Z,55.10
2023-03-05T06:51:07.459Z,55.80
2023-03-05T06:53:34.331Z,55.70
2023-03-05T06:56:01.433Z,55.70
2023-03-05T06:58:28.364Z,55.30
2023-03-05T07:00:55.292Z,55.30
2023-03-05T07:03:22.193Z,55.70
2023-03-05T07:05:49.041Z,55.10
2023-03-05T07:08:16.320Z,55.40
2023-03-05T07:10:44.031Z,55.20
2023-03-05T07:13:11.030Z,54.90
2023-03-05T07:15:38.810Z,55.90
2023-03-05T07:18:05.977Z,54.90
2023-03-05T07:20:36.697Z,54.50
2023-03-05T07:23:03.826Z,55.40
2023-03-05T07:25:30.976Z,55.80
2023-03-05T07:27:57.968Z,55.00
2023-03-05T07:30:24.855Z,55.80
2023-03-05T07:32:51.856Z,55.10
2023-03-05T07:35:18.812Z,54.30
2023-03-05T07:37:45.815Z,54.30
2023-03-05T07:40:12.837Z,54.30
2023-03-05T07:42:39.884Z,55.10
2023-03-05T07:45:13.688Z,55.30
2023-03-05T07:47:40.604Z,54.10
2023-03-05T07:50:07.968Z,52.90
2023-03-05T07:52:34.993Z,53.20
2023-03-05T07:55:01.861Z,54.30
2023-03-05T07:57:29.124Z,52.70
2023-03-05T07:59:56.049Z,53.60
2023-03-05T08:02:23.512Z,52.40
2023-03-05T08:04:50.437Z,53.10
2023-03-05T08:07:17.372Z,52.40
2023-03-05T08:09:44.287Z,51.90
2023-03-05T08:12:11.211Z,51.60
2023-03-05T08:14:38.152Z,49.80
2023-03-05T08:17:05.636Z,48.30
2023-03-05T08:19:33.015Z,50.70
2023-03-05T08:22:00.150Z,49.70
2023-03-05T08:24:29.827Z,49.40
2023-03-05T08:26:57.574Z,49.70
2023-03-05T08:29:25.122Z,47.00
2023-03-05T08:31:53.703Z,47.10
2023-03-05T08:34:21.292Z,47.00
2023-03-05T08:36:49.017Z,46.00
2023-03-05T08:39:16.273Z,47.30
2023-03-05T08:41:43.328Z,46.90
2023-03-05T08:44:10.278Z,46.90
2023-03-05T08:46:39.615Z,47.00
2023-03-05T08:49:07.497Z,42.30
2023-03-05T08:51:35.078Z,44.70
2023-03-05T08:54:02.605Z,46.70
2023-03-05T08:56:31.507Z,43.90
2023-03-05T08:58:58.441Z,42.70
2023-03-05T09:01:25.404Z,43.40
2023-03-05T09:03:52.386Z,42.50
2023-03-05T09:06:19.321Z,41.30
2023-03-05T09:08:46.158Z,40.10
2023-03-05T09:11:13.071Z,40.40
2023-03-05T09:13:40.234Z,38.60
2023-03-05T09:16:09.589Z,40.10
2023-03-05T09:18:37.040Z,40.30
2023-03-05T09:21:07.946Z,37.90
2023-03-05T09:23:35.171Z,40.00
2023-03-05T09:26:02.453Z,38.70
2023-03-05T09:28:29.336Z,39.30
2023-03-05T09:30:56.211Z,40.60
2023-03-05T09:33:23.242Z,40.70
2023-03-05T09:35:50.330Z,39.10
2023-03-05T09:38:19.035Z,39.30
2023-03-05T09:41:14.332Z,38.70
2023-03-05T09:43:55.778Z,35.60
2023-03-05T09:46:28.869Z,35.70
2023-03-05T09:49:54.193Z,35.70
2023-03-05T09:52:30.311Z,35.60
2023-03-05T09:54:57.441Z,39.50
2023-03-05T09:57:41.121Z,40.20
2023-03-05T10:00:21.271Z,32.50
2023-03-05T10:02:48.968Z,36.80
2023-03-05T10:05:45.559Z,30.80
2023-03-05T10:08:12.694Z,34.70
2023-03-05T10:10:42.003Z,35.70
2023-03-05T10:13:32.448Z,35.90
2023-03-05T10:16:08.464Z,30.30
2023-03-05T10:19:03.146Z,34.30
2023-03-05T10:21:48.072Z,33.50
2023-03-05T10:24:20.098Z,30.90
2023-03-05T10:27:13.877Z,31.10
2023-03-05T10:29:52.747Z,31.60
2023-03-05T10:32:32.249Z,33.20
2023-03-05T10:35:11.520Z,28.90
2023-03-05T10:37:47.207Z,36.90
2023-03-05T10:40:46.342Z,34.40
2023-03-05T10:43:24.556Z,32.20
2023-03-05T10:45:53.091Z,33.70
2023-03-05T10:48:34.853Z,32.90
2023-03-05T10:51:28.987Z,33.90
2023-03-05T10:54:04.200Z,33.30
2023-03-05T10:56:32.006Z,32.20
2023-03-05T10:58:58.856Z,31.70
2023-03-05T11:01:30.280Z,34.30
2023-03-05T11:04:00.713Z,31.50
2023-03-05T11:06:41.788Z,29.30
2023-03-05T11:09:24.712Z,27.40
2023-03-05T11:12:19.544Z,29.10
2023-03-05T11:15:10.519Z,29.70
2023-03-05T11:17:38.286Z,28.60
2023-03-05T11:20:26.896Z,26.60
2023-03-05T11:23:09.972Z,25.10
2023-03-05T11:25:57.276Z,23.30
2023-03-05T11:28:32.840Z,24.90
2023-03-05T11:31:07.507Z,28.80
2023-03-05T11:33:36.141Z,29.00
2023-03-05T11:36:23.184Z,27.80
2023-03-05T11:38:59.843Z,23.40
2023-03-05T11:41:50.476Z,26.60
2023-03-05T11:44:23.451Z,25.00
2023-03-05T11:46:56.532Z,27.70
2023-03-05T11:49:28.352Z,23.80
2023-03-05T11:52:18.489Z,27.00
2023-03-05T11:55:14.952Z,23.60
2023-03-05T11:58:22.847Z,25.30
2023-03-05T12:00:49.733Z,25.60
2023-03-05T12:03:18.980Z,25.60
2023-03-05T12:05:48.333Z,28.20
2023-03-05T12:08:17.483Z,26.80
2023-03-05T12:10:44.474Z,26.20
2023-03-05T12:13:23.329Z,25.30
2023-03-05T12:15:56.202Z,25.20
2023-03-05T12:18:35.184Z,23.70
2023-03-05T12:21:13.831Z,23.70
2023-03-05T12:23:52.040Z,22.90
2023-03-05T12:26:19.140Z,26.40
2023-03-05T12:28:46.540Z,27.60
2023-03-05T12:31:45.580Z,26.10
2023-03-05T12:34:40.674Z,23.20
2023-03-05T12:37:23.392Z,21.80
2023-03-05T12:40:07.542Z,26.20
2023-03-05T12:42:34.401Z,23.60
2023-03-05T12:45:14.495Z,26.20
2023-03-05T12:47:41.818Z,27.70
2023-03-05T12:50:27.304Z,25.10
2023-03-05T12:52:54.641Z,25.10
2023-03-05T12:55:33.762Z,26.10
2023-03-05T12:58:16.142Z,25.10
2023-03-05T13:00:50.412Z,27.00
2023-03-05T13:03:57.950Z,25.70
2023-03-05T13:06:27.387Z,26.10
2023-03-05T13:08:58.797Z,25.90
2023-03-05T13:11:25.720Z,28.60
2023-03-05T13:13:52.610Z,31.50
2023-03-05T13:16:29.198Z,30.40
2023-03-05T13:18:59.454Z,29.40
2023-03-05T13:21:27.205Z,28.50
2023-03-05T13:23:58.495Z,29.50
2023-03-05T13:26:29.955Z,30.90
2023-03-05T13:29:06.023Z,27.70
2023-03-05T13:31:35.047Z,28.20
2023-03-05T13:34:19.538Z,27.70
2023-03-05T13:36:48.713Z,27.40
2023-03-05T13:39:21.159Z,30.20
2023-03-05T13:42:04.582Z,27.60
2023-03-05T13:44:31.994Z,23.10
2023-03-05T13:47:18.999Z,25.50
2023-03-05T13:49:47.356Z,24.90
2023-03-05T13:52:25.073Z,25.00
2023-03-05T13:54:52.162Z,23.20
2023-03-05T13:57:38.581Z,26.50
2023-03-05T14:00:07.205Z,24.80
2023-03-05T14:02:34.946Z,24.70
2023-03-05T14:05:01.851Z,25.80
2023-03-05T14:07:40.035Z,27.90
2023-03-05T14:10:36.375Z,24.90
2023-03-05T14:13:19.990Z,24.70
2023-03-05T14:16:09.831Z,25.10
2023-03-05T14:18:36.874Z,25.70
2023-03-05T14:21:09.007Z,27.40
2023-03-05T14:23:43.958Z,29.30
2023-03-05T14:26:34.293Z,29.40
2023-03-05T14:29:13.702Z,28.50
2023-03-05T14:31:48.277Z,28.50
2023-03-05T14:34:21.179Z,28.60
2023-03-05T14:36:53.246Z,27.00
2023-03-05T14:39:31.122Z,26.60
2023-03-05T14:42:38.996Z,27.70
2023-03-05T14:45:33.932Z,26.90
2023-03-05T14:48:01.814Z,28.20
2023-03-05T14:50:44.055Z,29.10
2023-03-05T14:53:15.938Z,29.10
2023-03-05T14:55:44.778Z,29.10
2023-03-05T14:58:29.641Z,28.00
2023-03-05T15:00:57.117Z,29.50
2023-03-05T15:03:24.234Z,30.20
2023-03-05T15:05:53.041Z,30.50
2023-03-05T15:08:25.927Z,30.10
2023-03-05T15:10:53.006Z,29.70
2023-03-05T15:13:20.640Z,31.00
2023-03-05T15:15:48.142Z,31.20
2023-03-05T15:18:16.222Z,30.40
2023-03-05T15:20:43.236Z,31.90
2023-03-05T15:23:10.395Z,32.20
2023-03-05T15:25:37.543Z,30.80
2023-03-05T15:28:04.539Z,31.10
2023-03-05T15:30:33.484Z,31.90
2023-03-05T15:33:05.583Z,32.50
2023-03-05T15:35:32.730Z,31.40
2023-03-05T15:37:59.673Z,31.10
2023-03-05T15:40:27.882Z,31.80
2023-03-05T15:42:58.658Z,32.00
2023-03-05T15:45:26.165Z,32.40
2023-03-05T15:47:53.243Z,30.70
2023-03-05T15:50:21.106Z,33.60
2023-03-05T15:52:48.236Z,32.80
2023-03-05T15:55:15.090Z,33.10
2023-03-05T15:57:46.623Z,33.40
2023-03-05T16:00:14.693Z,32.40
2023-03-05T16:02:41.648Z,34.70
2023-03-05T16:05:09.294Z,34.30
2023-03-05T16:07:37.165Z,34.40
2023-03-05T16:10:04.501Z,34.20
2023-03-05T16:12:33.431Z,33.80
2023-03-05T16:15:00.524Z,34.00
2023-03-05T16:17:27.524Z,31.70
2023-03-05T16:19:54.581Z,32.00
2023-03-05T16:22:21.487Z,33.10
2023-03-05T16:24:48.392Z,31.90
2023-03-05T16:27:15.269Z,31.80
2023-03-05T16:29:42.242Z,33.20
2023-03-05T16:32:09.242Z,31.70
2023-03-05T16:34:36.278Z,33.00
2023-03-05T16:37:06.837Z,31.00
2023-03-05T16:39:33.825Z,30.60
2023-03-05T16:42:00.847Z,30.30
2023-03-05T16:44:27.857Z,31.10
2023-03-05T16:46:56.477Z,32.20
2023-03-05T16:49:24.083Z,31.80
2023-03-05T16:51:50.913Z,31.80
2023-03-05T16:54:17.816Z,31.10
2023-03-05T16:56:44.690Z,30.20
2023-03-05T16:59:12.982Z,32.30
2023-03-05T17:01:39.864Z,32.80
2023-03-05T17:04:07.538Z,30.60
2023-03-05T17:06:34.943Z,30.80
2023-03-05T17:09:02.630Z,31.60
2023-03-05T17:11:29.664Z,32.20
2023-03-05T17:13:56.598Z,32.10
2023-03-05T17:16:23.576Z,30.90
2023-03-05T17:18:50.467Z,32.30
2023-03-05T17:21:17.383Z,31.90
2023-03-05T17:23:44.365Z,32.20
2023-03-05T17:26:13.260Z,31.40
2023-03-05T17:28:40.202Z,31.90
2023-03-05T17:31:07.264Z,32.00
2023-03-05T17:33:34.661Z,32.10
2023-03-05T17:36:01.612Z,32.20
2023-03-05T17:38:30.449Z,31.40
2023-03-05T17:40:59.806Z,33.70
2023-03-05T17:43:26.819Z,33.60
2023-03-05T17:45:53.709Z,33.20
2023-03-05T17:48:20.620Z,32.90
2023-03-05T17:50:47.567Z,34.00
2023-03-05T17:53:14.501Z,35.10
2023-03-05T17:55:41.581Z,35.00
2023-03-05T17:58:08.493Z,34.80
2023-03-05T18:00:35.715Z,34.60
2023-03-05T18:03:02.954Z,35.10
2023-03-05T18:05:29.890Z,34.60
2023-03-05T18:07:56.893Z,35.10
2023-03-05T18:10:25.740Z,35.20
2023-03-05T18:12:53.093Z,35.10
2023-03-05T18:15:20.569Z,35.10
2023-03-05T18:17:47.901Z,36.10
2023-03-05T18:20:26.714Z,36.40
2023-03-05T18:22:53.692Z,37.80
2023-03-05T18:25:20.613Z,37.20
2023-03-05T18:27:47.536Z,37.10
2023-03-05T18:30:14.560Z,36.50
2023-03-05T18:32:41.538Z,37.70
2023-03-05T18:35:09.573Z,37.70
2023-03-05T18:37:38.188Z,38.20
2023-03-05T18:40:09.669Z,37.40
2023-03-05T18:42:37.131Z,38.50
2023-03-05T18:45:05.636Z,39.10
2023-03-05T18:47:33.409Z,38.80
2023-03-05T18:50:00.309Z,38.80
2023-03-05T18:52:27.156Z,39.80
2023-03-05T18:54:54.093Z,40.50
2023-03-05T18:57:20.908Z,39.50
2023-03-05T18:59:47.858Z,39.90
2023-03-05T19:02:15.358Z,40.90
2023-03-05T19:04:42.687Z,41.20
2023-03-05T19:07:09.605Z,41.30
2023-03-05T19:10:02.386Z,40.80
2023-03-05T19:12:31.885Z,41.70
2023-03-05T19:14:59.597Z,41.70
2023-03-05T19:17:26.507Z,43.20
2023-03-05T19:19:53.696Z,42.60
2023-03-05T19:22:20.659Z,43.10
2023-03-05T19:24:47.519Z,42.90
2023-03-05T19:27:14.438Z,43.40
2023-03-05T19:29:41.976Z,43.20
2023-03-05T19:32:14.280Z,42.80
2023-03-05T19:34:41.391Z,42.50
2023-03-05T19:37:08.620Z,42.50
2023-03-05T19:39:35.585Z,42.90
2023-03-05T19:42:02.527Z,45.40
2023-03-05T19:44:29.837Z,44.00
2023-03-05T19:46:56.721Z,44.30
2023-03-05T19:49:23.737Z,44.20
2023-03-05T19:51:51.360Z,44.80
2023-03-05T19:54:19.157Z,44.70
2023-03-05T19:56:46.421Z,44.60
2023-03-05T19:59:16.430Z,45.00
2023-03-05T20:01:43.757Z,45.30
2023-03-05T20:04:11.348Z,45.80
2023-03-05T20:06:38.309Z,45.60
2023-03-05T20:09:07.609Z,45.20
2023-03-05T20:11:35.152Z,45.00
2023-03-05T20:14:02.099Z,47.40
2023-03-05T20:16:31.704Z,47.40
2023-03-05T20:18:59.197Z,47.40
2023-03-05T20:21:29.109Z,49.90
2023-03-05T20:23:57.394Z,49.70
2023-03-05T20:26:25.965Z,51.80
2023-03-05T20:28:53.073Z,51.70
2023-03-05T20:31:20.749Z,52.20
2023-03-05T20:33:47.715Z,51.20
2023-03-05T20:36:14.570Z,51.30
2023-03-05T20:38:41.703Z,48.10
2023-03-05T20:41:10.902Z,48.30
2023-03-05T20:43:43.586Z,50.30
2023-03-05T20:46:27.278Z,50.40
2023-03-05T20:48:56.599Z,50.40
2023-03-05T20:51:24.674Z,50.60
2023-03-05T20:53:58.113Z,49.50
2023-03-05T20:56:27.930Z,51.10
2023-03-05T20:58:58.385Z,52.60
2023-03-05T21:01:28.539Z,51.20
2023-03-05T21:03:57.313Z,52.00
2023-03-05T21:06:24.774Z,54.10
2023-03-05T21:08:51.650Z,50.60
2023-03-05T21:11:18.568Z,53.40
2023-03-05T21:13:45.550Z,51.10
2023-03-05T21:16:16.261Z,51.70
2023-03-05T21:18:43.255Z,53.70
2023-03-05T21:21:10.152Z,53.80
2023-03-05T21:23:37.000Z,54.60
2023-03-05T21:26:04.320Z,54.80
2023-03-05T21:28:31.892Z,54.70
2023-03-05T21:30:58.837Z,53.10
2023-03-05T21:33:30.333Z,54.70
2023-03-05T21:35:58.194Z,54.20
2023-03-05T21:38:25.672Z,55.00
2023-03-05T21:40:53.920Z,55.40
2023-03-05T21:43:22.364Z,54.70
2023-03-05T21:45:50.947Z,54.20
2023-03-05T21:48:17.985Z,56.90
2023-03-05T21:50:45.626Z,56.00
2023-03-05T21:53:12.957Z,54.60
2023-03-05T21:55:57.985Z,54.70
2023-03-05T21:58:24.951Z,55.30
2023-03-05T22:00:51.967Z,56.90
2023-03-05T22:03:19.104Z,58.10
2023-03-05T22:05:45.981Z,58.70
2023-03-05T22:08:12.883Z,56.30
2023-03-05T22:10:40.588Z,57.80
2023-03-05T22:13:10.757Z,60.50
2023-03-05T22:15:56.345Z,59.60
2023-03-05T22:18:27.772Z,63.50
2023-03-05T22:20:54.990Z,62.50
2023-03-05T22:23:22.945Z,62.40
2023-03-05T22:26:06.305Z,62.30
2023-03-05T22:28:33.542Z,64.40
2023-03-05T22:31:00.557Z,62.90
2023-03-05T22:33:27.553Z,60.10
2023-03-05T22:35:54.696Z,62.00
2023-03-05T22:38:21.796Z,63.00
2023-03-05T22:40:49.157Z,61.80
2023-03-05T22:43:16.136Z,61.40
2023-03-05T22:45:43.164Z,63.30
2023-03-05T22:48:10.094Z,62.10
2023-03-05T22:50:40.447Z,63.70
2023-03-05T22:53:07.342Z,62.40
2023-03-05T22:55:34.168Z,63.40
2023-03-05T22:58:01.067Z,61.70
2023-03-05T23:00:27.945Z,61.80
2023-03-05T23:02:55.025Z,61.70
2023-03-05T23:05:21.899Z,64.90
2023-03-05T23:07:49.327Z,64.10
2023-03-05T23:10:20.793Z,63.50
2023-03-05T23:12:50.070Z,64.30
2023-03-05T23:15:24.833Z,63.70
2023-03-05T23:17:51.738Z,62.60
2023-03-05T23:20:20.949Z,64.20
2023-03-05T23:22:47.973Z,62.20
2023-03-05T23:25:15.277Z,62.50
2023-03-05T23:27:42.455Z,62.10
2023-03-05T23:30:17.038Z,64.40
2023-03-05T23:33:04.147Z,61.70
2023-03-05T23:35:33.973Z,62.80
2023-03-05T23:38:01.391Z,64.20
2023-03-05T23:40:36.221Z,62.80
2023-03-05T23:43:03.205Z,64.60
2023-03-05T23:45:30.235Z,63.70
2023-03-05T23:47:57.286Z,62.70
2023-03-05T23:50:26.348Z,64.60
2023-03-05T23:52:54.408Z,64.50
2023-03-05T23:55:26.030Z,63.70
2023-03-05T23:57:53.102Z,65.00
